createdAt,value
2022-08-25T00:00:25.665Z,21.20
2022-08-25T00:05:32.261Z,21.10
2022-08-25T00:10:37.877Z,21.00
2022-08-25T00:15:39.727Z,21.10
2022-08-25T00:20:48.691Z,21.00
2022-08-25T00:25:50.946Z,20.90
2022-08-25T00:30:52.831Z,20.90
2022-08-25T00:35:56.371Z,20.80
2022-08-25T00:41:07.459Z,20.80
2022-08-25T00:46:10.454Z,20.80
2022-08-25T00:51:16.664Z,20.70
2022-08-25T00:56:18.753Z,20.70
2022-08-25T01:01:23.195Z,20.60
2022-08-25T01:06:25.074Z,20.60
2022-08-25T01:11:27.827Z,20.50
2022-08-25T01:16:29.750Z,20.50
2022-08-25T01:21:37.449Z,20.40
2022-08-25T01:26:39.229Z,20.30
2022-08-25T01:31:42.280Z,20.30
2022-08-25T01:36:44.769Z,20.20
2022-08-25T01:42:18.160Z,20.20
2022-08-25T01:47:20.164Z,20.10
2022-08-25T01:52:28.913Z,20.10
2022-08-25T01:57:31.751Z,20.00
2022-08-25T02:02:33.492Z,20.00
2022-08-25T02:07:36.641Z,19.90
2022-08-25T02:12:40.115Z,19.90
2022-08-25T02:17:41.870Z,19.90
2022-08-25T02:22:51.143Z,19.90
2022-08-25T02:27:58.885Z,19.80
2022-08-25T02:33:00.763Z,19.80
2022-08-25T02:38:02.696Z,19.80
2022-08-25T02:43:05.738Z,19.80
2022-08-25T02:48:07.585Z,19.80
2022-08-25T02:53:09.277Z,19.70
2022-08-25T02:58:10.952Z,19.60
2022-08-25T03:03:12.863Z,19.60
2022-08-25T03:08:15.366Z,19.60
2022-08-25T03:13:17.951Z,19.60
2022-08-25T03:18:19.808Z,19.50
2022-08-25T03:23:21.583Z,19.50
2022-08-25T03:28:28.927Z,19.40
2022-08-25T03:33:32.270Z,19.40
2022-08-25T03:38:34.021Z,19.40
2022-08-25T03:43:35.749Z,19.40
2022-08-25T03:48:37.528Z,19.40
2022-08-25T03:53:39.363Z,19.30
2022-08-25T03:58:41.081Z,19.30
2022-08-25T04:03:42.843Z,19.20
2022-08-25T04:08:44.779Z,19.20
2022-08-25T04:13:47.807Z,19.30
2022-08-25T04:18:50.670Z,19.20
2022-08-25T04:23:54.032Z,19.30
2022-08-25T04:28:58.425Z,19.30
2022-08-25T04:34:03.790Z,19.30
2022-08-25T04:39:06.083Z,19.30
2022-08-25T04:44:07.938Z,19.30
2022-08-25T04:49:10.119Z,19.30
2022-08-25T04:54:16.971Z,19.30
2022-08-25T04:59:19.214Z,19.40
2022-08-25T05:04:28.503Z,19.50
2022-08-25T05:09:32.089Z,19.50
2022-08-25T05:14:34.015Z,19.60
2022-08-25T05:19:36.249Z,19.60
2022-08-25T05:24:38.217Z,19.70
2022-08-25T05:29:39.896Z,19.70
2022-08-25T05:34:41.626Z,19.80
2022-08-25T05:39:43.366Z,19.90
2022-08-25T05:44:45.044Z,20.00
2022-08-25T05:49:46.839Z,20.10
2022-08-25T05:54:48.643Z,20.10
2022-08-25T05:59:50.435Z,20.10
2022-08-25T06:04:52.132Z,20.30
2022-08-25T06:09:53.960Z,20.40
2022-08-25T06:14:55.830Z,20.60
2022-08-25T06:19:57.647Z,20.70
2022-08-25T06:24:59.502Z,20.70
2022-08-25T06:30:04.798Z,20.90
2022-08-25T06:35:12.853Z,21.00
2022-08-25T06:40:16.353Z,21.10
2022-08-25T06:45:18.557Z,21.00
2022-08-25T06:50:20.472Z,21.20
2022-08-25T06:55:22.210Z,21.30
2022-08-25T07:00:30.369Z,21.40
2022-08-25T07:05:43.397Z,21.50
2022-08-25T07:10:48.016Z,21.60
2022-08-25T07:15:55.152Z,21.70
2022-08-25T07:20:58.086Z,21.90
2022-08-25T07:26:36.275Z,22.20
2022-08-25T07:31:35.509Z,22.50
2022-08-25T07:36:37.242Z,22.90
2022-08-25T07:41:42.104Z,22.90
2022-08-25T07:46:43.891Z,23.10
2022-08-25T07:52:05.661Z,23.20
2022-08-25T07:57:09.909Z,23.70
2022-08-25T08:02:18.416Z,24.20
2022-08-25T08:07:42.300Z,24.70
2022-08-25T08:12:45.892Z,24.70
2022-08-25T08:17:47.604Z,24.40
2022-08-25T08:22:49.944Z,24.30
2022-08-25T08:27:51.718Z,24.30
2022-08-25T08:33:09.624Z,24.70
2022-08-25T08:38:17.341Z,25.10
2022-08-25T08:43:21.908Z,25.30
2022-08-25T08:48:43.045Z,25.50
2022-08-25T08:53:57.101Z,25.30
2022-08-25T08:59:22.192Z,25.20
2022-08-25T09:04:46.690Z,25.00
2022-08-25T09:09:49.044Z,25.40
2022-08-25T09:15:13.929Z,25.20
2022-08-25T09:20:40.408Z,25.60
2022-08-25T09:25:53.136Z,25.60
2022-08-25T09:30:59.350Z,26.00
2022-08-25T09:36:01.401Z,26.20
2022-08-25T09:41:08.531Z,26.30
2022-08-25T09:46:30.649Z,26.90
2022-08-25T09:51:42.173Z,26.90
2022-08-25T09:56:56.185Z,26.90
2022-08-25T10:02:00.958Z,27.30
2022-08-25T10:07:25.399Z,27.40
2022-08-25T10:12:42.330Z,27.20
2022-08-25T10:17:45.805Z,26.80
2022-08-25T10:22:50.653Z,26.80
2022-08-25T10:28:15.032Z,26.70
2022-08-25T10:34:03.526Z,26.70
2022-08-25T10:39:05.544Z,26.70
2022-08-25T10:44:58.156Z,27.00
2022-08-25T10:50:23.575Z,27.20
2022-08-25T10:55:49.142Z,27.20
2022-08-25T11:01:04.648Z,27.40
2022-08-25T11:06:13.834Z,27.90
2022-08-25T11:11:35.075Z,27.60
2022-08-25T11:16:48.608Z,27.90
2022-08-25T11:22:21.284Z,28.40
2022-08-25T11:27:30.969Z,27.90
2022-08-25T11:32:35.544Z,27.90
2022-08-25T11:38:08.823Z,28.10
2022-08-25T11:43:54.621Z,27.90
2022-08-25T11:49:13.917Z,27.80
2022-08-25T11:54:45.130Z,28.10
2022-08-25T12:00:21.961Z,28.40
2022-08-25T12:05:24.183Z,28.40
2022-08-25T12:10:26.360Z,28.20
2022-08-25T12:15:42.896Z,28.30
2022-08-25T12:21:12.083Z,28.10
2022-08-25T12:26:46.108Z,28.00
2022-08-25T12:31:59.171Z,28.10
2022-08-25T12:37:18.722Z,28.30
2022-08-25T12:42:44.127Z,28.50
2022-08-25T12:47:49.134Z,28.50
2022-08-25T12:52:52.476Z,28.50
2022-08-25T12:57:58.741Z,28.50
2022-08-25T13:03:12.526Z,28.80
2022-08-25T13:08:38.882Z,28.60
2022-08-25T13:14:15.248Z,28.70
2022-08-25T13:19:19.870Z,29.00
2022-08-25T13:30:03.970Z,29.90
2022-08-25T13:35:20.939Z,30.70
2022-08-25T13:40:32.607Z,30.80
2022-08-25T13:45:41.452Z,30.90
2022-08-25T13:50:43.869Z,30.60
2022-08-25T13:56:01.860Z,30.20
2022-08-25T14:01:23.659Z,30.30
2022-08-25T14:06:33.396Z,30.50
2022-08-25T14:11:49.791Z,30.50
2022-08-25T14:17:04.985Z,30.70
2022-08-25T14:22:18.266Z,31.30
2022-08-25T14:27:20.473Z,32.00
2022-08-25T14:32:22.739Z,32.10
2022-08-25T14:37:25.780Z,31.70
2022-08-25T14:42:27.711Z,30.60
2022-08-25T14:47:31.617Z,30.80
2022-08-25T14:52:33.509Z,31.30
2022-08-25T14:57:35.914Z,31.60
2022-08-25T15:02:41.715Z,32.30
2022-08-25T15:08:02.784Z,32.10
2022-08-25T15:13:06.169Z,30.90
2022-08-25T15:18:08.736Z,31.20
2022-08-25T15:23:11.631Z,31.20
2022-08-25T15:28:17.363Z,32.00
2022-08-25T15:33:19.525Z,31.90
2022-08-25T15:38:21.704Z,32.70
2022-08-25T15:43:23.388Z,32.20
2022-08-25T15:48:27.707Z,32.00
2022-08-25T15:53:29.864Z,31.60
2022-08-25T15:58:32.622Z,31.60
2022-08-25T16:03:35.186Z,31.60
2022-08-25T16:08:38.341Z,32.00
2022-08-25T16:13:40.048Z,31.80
2022-08-25T16:18:45.165Z,32.00
2022-08-25T16:23:47.245Z,32.20
2022-08-25T16:28:51.293Z,32.20
2022-08-25T16:33:56.113Z,31.90
2022-08-25T16:39:01.353Z,30.90
2022-08-25T16:44:07.774Z,30.20
2022-08-25T16:49:14.441Z,30.10
2022-08-25T16:54:36.412Z,30.10
2022-08-25T16:59:38.084Z,30.10
2022-08-25T17:04:40.751Z,30.10
2022-08-25T17:09:42.614Z,30.20
2022-08-25T17:14:44.323Z,30.10
2022-08-25T17:19:49.700Z,29.80
2022-08-25T17:25:00.708Z,29.70
2022-08-25T17:30:04.641Z,29.50
2022-08-25T17:35:07.381Z,29.10
2022-08-25T17:40:10.109Z,28.80
2022-08-25T17:45:12.845Z,28.50
2022-08-25T17:50:14.906Z,28.30
2022-08-25T17:55:22.820Z,28.20
2022-08-25T18:00:24.921Z,28.00
2022-08-25T18:05:27.758Z,27.80
2022-08-25T18:10:29.719Z,27.60
2022-08-25T18:15:31.450Z,27.50
2022-08-25T18:20:33.368Z,27.40
2022-08-25T18:25:35.122Z,27.20
2022-08-25T18:30:38.776Z,27.00
2022-08-25T18:35:40.546Z,26.90
2022-08-25T18:40:43.420Z,26.70
2022-08-25T18:45:47.911Z,26.70
2022-08-25T18:50:51.981Z,26.60
2022-08-25T18:55:54.509Z,26.40
2022-08-25T19:00:56.369Z,26.30
2022-08-25T19:05:58.415Z,26.20
2022-08-25T19:11:00.182Z,26.10
2022-08-25T19:16:20.411Z,26.00
2022-08-25T19:21:23.836Z,25.90
2022-08-25T19:26:26.000Z,25.80
2022-08-25T19:31:33.008Z,25.80
2022-08-25T19:36:35.553Z,25.70
2022-08-25T19:41:37.416Z,25.70
2022-08-25T19:46:43.479Z,25.50
2022-08-25T19:51:50.622Z,25.50
2022-08-25T19:56:54.336Z,25.40
2022-08-25T20:01:57.039Z,25.30
2022-08-25T20:06:59.514Z,25.20
2022-08-25T20:12:01.381Z,25.10
2022-08-25T20:17:14.495Z,25.10
2022-08-25T20:22:31.319Z,25.00
2022-08-25T20:27:39.409Z,24.90
2022-08-25T20:32:41.264Z,24.70
2022-08-25T20:37:44.585Z,24.70
2022-08-25T20:42:46.890Z,24.60
2022-08-25T20:47:49.358Z,24.40
2022-08-25T20:52:52.038Z,24.40
2022-08-25T20:57:53.787Z,24.30
2022-08-25T21:02:56.556Z,24.20
2022-08-25T21:07:58.381Z,24.10
2022-08-25T21:13:00.837Z,24.10
2022-08-25T21:18:04.054Z,24.00
2022-08-25T21:23:08.110Z,23.90
2022-08-25T21:28:10.807Z,23.90
2022-08-25T21:33:12.586Z,23.80
2022-08-25T21:38:15.362Z,23.70
2022-08-25T21:43:18.603Z,23.60
2022-08-25T21:48:20.422Z,23.60
2022-08-25T21:53:23.187Z,23.50
2022-08-25T21:58:25.131Z,23.40
2022-08-25T22:03:26.907Z,23.30
2022-08-25T22:08:30.500Z,23.20
2022-08-25T22:13:33.649Z,23.20
2022-08-25T22:18:35.353Z,23.10
2022-08-25T22:23:40.032Z,23.00
2022-08-25T22:28:46.624Z,23.00
2022-08-25T22:33:49.743Z,22.90
2022-08-25T22:38:53.256Z,22.90
2022-08-25T22:43:56.630Z,22.90
2022-08-25T22:48:59.438Z,22.80
2022-08-25T22:54:02.028Z,22.80
2022-08-25T22:59:08.509Z,22.70
2022-08-25T23:04:10.811Z,22.70
2022-08-25T23:09:12.970Z,22.70
2022-08-25T23:14:15.897Z,22.60
2022-08-25T23:19:18.524Z,22.40
2022-08-25T23:24:26.823Z,22.30
2022-08-25T23:29:38.280Z,22.30
2022-08-25T23:34:42.903Z,22.20
2022-08-25T23:39:50.079Z,22.20
2022-08-25T23:44:52.076Z,22.10
2022-08-25T23:49:53.806Z,22.10
2022-08-25T23:54:55.667Z,22.10
2022-08-25T23:59:57.466Z,22.10
